createdAt,value
2022-11-19T00:00:48.246Z,23.88
2022-11-19T00:01:53.016Z,22.40
2022-11-19T00:02:55.445Z,18.00
2022-11-19T00:04:00.189Z,24.15
2022-11-19T00:05:02.345Z,20.38
2022-11-19T00:06:08.944Z,21.80
2022-11-19T00:07:13.737Z,23.65
2022-11-19T00:08:18.197Z,22.95
2022-11-19T00:09:23.126Z,29.48
2022-11-19T00:10:25.329Z,25.58
2022-11-19T00:11:45.007Z,26.08
2022-11-19T00:12:58.518Z,24.92
2022-11-19T00:14:00.650Z,14.63
2022-11-19T00:15:05.539Z,9.77
2022-11-19T00:16:10.071Z,9.85
2022-11-19T00:17:14.829Z,27.80
2022-11-19T00:18:16.865Z,9.23
2022-11-19T00:19:21.722Z,13.50
2022-11-19T00:20:24.180Z,12.60
2022-11-19T00:21:29.168Z,15.35
2022-11-19T00:22:31.440Z,8.35
2022-11-19T00:23:36.338Z,15.82
2022-11-19T00:24:41.866Z,12.68
2022-11-19T00:25:43.915Z,12.85
2022-11-19T00:26:51.221Z,7.28
2022-11-19T00:27:55.927Z,25.25
2022-11-19T00:29:00.695Z,14.77
2022-11-19T00:30:05.541Z,18.50
2022-11-19T00:31:17.747Z,14.23
2022-11-19T00:32:19.963Z,14.23
2022-11-19T00:33:24.651Z,24.95
2022-11-19T00:34:26.681Z,18.73
2022-11-19T00:35:31.374Z,27.73
2022-11-19T00:36:33.401Z,20.50
2022-11-19T00:37:38.247Z,34.22
2022-11-19T00:38:40.485Z,26.20
2022-11-19T00:39:45.245Z,19.58
2022-11-19T00:40:47.299Z,28.30
2022-11-19T00:41:54.586Z,32.00
2022-11-19T00:43:11.412Z,27.08
2022-11-19T00:44:16.152Z,19.20
2022-11-19T00:45:18.162Z,19.85
2022-11-19T00:46:25.912Z,23.67
2022-11-19T00:47:27.985Z,21.02
2022-11-19T00:48:32.792Z,16.90
2022-11-19T00:49:37.854Z,14.15
2022-11-19T00:50:42.621Z,31.60
2022-11-19T00:51:47.351Z,33.97
2022-11-19T00:52:49.391Z,37.22
2022-11-19T00:53:54.268Z,39.53
2022-11-19T00:54:56.257Z,10.05
2022-11-19T00:56:04.386Z,13.65
2022-11-19T00:57:13.517Z,35.55
2022-11-19T00:58:15.684Z,20.50
2022-11-19T00:59:20.844Z,23.08
2022-11-19T01:00:28.092Z,14.88
2022-11-19T01:01:32.775Z,27.13
2022-11-19T01:02:34.904Z,16.95
2022-11-19T01:03:41.180Z,14.77
2022-11-19T01:04:43.358Z,17.05
2022-11-19T01:05:47.963Z,37.40
2022-11-19T01:06:49.973Z,19.48
2022-11-19T01:07:56.790Z,25.92
2022-11-19T01:08:59.347Z,16.98
2022-11-19T01:10:03.987Z,15.25
2022-11-19T01:11:08.148Z,16.67
2022-11-19T01:12:15.797Z,12.25
2022-11-19T01:13:33.197Z,14.43
2022-11-19T01:14:35.385Z,23.10
2022-11-19T01:15:39.991Z,27.95
2022-11-19T01:16:44.711Z,37.92
2022-11-19T01:17:46.732Z,26.35
2022-11-19T01:18:52.472Z,33.63
2022-11-19T01:19:55.597Z,37.15
2022-11-19T01:21:00.362Z,33.33
2022-11-19T01:22:02.361Z,13.98
2022-11-19T01:23:06.989Z,14.02
2022-11-19T01:24:09.356Z,19.33
2022-11-19T01:25:14.313Z,18.42
2022-11-19T01:26:19.769Z,13.90
2022-11-19T01:27:24.434Z,19.00
2022-11-19T01:28:31.739Z,16.92
2022-11-19T01:29:33.830Z,23.50
2022-11-19T01:30:42.089Z,24.98
2022-11-19T01:31:46.870Z,20.48
2022-11-19T01:32:48.924Z,20.23
2022-11-19T01:33:53.816Z,22.38
2022-11-19T01:34:55.838Z,25.08
2022-11-19T01:36:02.473Z,18.23
2022-11-19T01:37:04.501Z,23.20
2022-11-19T01:38:09.738Z,19.67
2022-11-19T01:39:11.748Z,19.70
2022-11-19T01:40:18.209Z,26.98
2022-11-19T01:41:24.933Z,19.70
2022-11-19T01:42:58.464Z,17.95
2022-11-19T01:44:04.837Z,26.13
2022-11-19T01:45:08.252Z,20.13
2022-11-19T01:46:13.927Z,19.23
2022-11-19T01:47:16.120Z,23.92
2022-11-19T01:48:25.880Z,26.30
2022-11-19T01:49:27.938Z,28.67
2022-11-19T01:50:36.444Z,27.42
2022-11-19T01:51:44.010Z,22.95
2022-11-19T01:52:46.512Z,36.08
2022-11-19T01:53:54.780Z,40.70
2022-11-19T01:54:56.915Z,29.63
2022-11-19T01:56:04.168Z,78.93
2022-11-19T01:57:10.270Z,30.70
2022-11-19T01:58:22.348Z,39.45
2022-11-19T01:59:26.509Z,42.70
2022-11-19T02:00:31.465Z,38.53
2022-11-19T02:01:33.965Z,39.22
2022-11-19T02:02:38.846Z,32.55
2022-11-19T02:03:41.595Z,44.00
2022-11-19T02:04:46.624Z,32.60
2022-11-19T02:05:49.975Z,30.75
2022-11-19T02:06:55.641Z,35.58
2022-11-19T02:07:58.808Z,31.60
2022-11-19T02:09:03.524Z,33.90
2022-11-19T02:10:07.086Z,30.85
2022-11-19T02:11:40.051Z,33.30
2022-11-19T02:12:48.079Z,21.65
2022-11-19T02:14:06.046Z,24.35
2022-11-19T02:15:22.753Z,27.75
2022-11-19T02:16:32.722Z,29.45
2022-11-19T02:17:47.169Z,26.23
2022-11-19T02:18:57.167Z,18.05
2022-11-19T02:20:27.012Z,24.35
2022-11-19T02:21:37.099Z,30.10
2022-11-19T02:23:07.696Z,24.85
2022-11-19T02:24:40.544Z,19.15
2022-11-19T02:26:05.761Z,31.00
2022-11-19T02:27:40.946Z,22.88
2022-11-19T02:28:47.430Z,26.20
2022-11-19T02:30:05.997Z,33.42
2022-11-19T02:31:14.663Z,18.63
2022-11-19T02:32:21.294Z,37.85
2022-11-19T02:33:30.994Z,17.75
2022-11-19T02:34:41.603Z,23.52
2022-11-19T02:35:52.859Z,9.45
2022-11-19T02:37:00.527Z,16.20
2022-11-19T02:38:12.949Z,15.60
2022-11-19T02:39:19.310Z,22.27
2022-11-19T02:40:35.647Z,20.13
2022-11-19T02:41:41.173Z,23.58
2022-11-19T02:42:53.162Z,26.33
2022-11-19T02:44:21.074Z,13.77
2022-11-19T02:45:37.977Z,13.93
2022-11-19T02:46:41.947Z,25.80
2022-11-19T02:47:50.483Z,18.63
2022-11-19T02:48:53.782Z,25.85
2022-11-19T02:50:04.279Z,36.70
2022-11-19T02:51:08.229Z,32.28
2022-11-19T02:52:13.505Z,23.33
2022-11-19T02:53:15.891Z,26.65
2022-11-19T02:54:22.677Z,21.85
2022-11-19T02:55:24.986Z,34.47
2022-11-19T02:56:51.952Z,31.27
2022-11-19T02:57:59.534Z,14.77
2022-11-19T02:59:17.760Z,15.00
2022-11-19T03:00:35.121Z,24.90
2022-11-19T03:01:59.322Z,22.67
2022-11-19T03:03:27.501Z,14.95
2022-11-19T03:04:33.292Z,16.25
2022-11-19T03:05:41.742Z,20.83
2022-11-19T03:06:46.595Z,20.20
2022-11-19T03:07:48.994Z,29.48
2022-11-19T03:08:54.437Z,30.17
2022-11-19T03:09:59.911Z,27.38
2022-11-19T03:11:14.439Z,24.17
2022-11-19T03:12:23.309Z,16.58
2022-11-19T03:13:45.897Z,20.52
2022-11-19T03:15:10.694Z,23.27
2022-11-19T03:16:33.056Z,29.35
2022-11-19T03:17:53.105Z,23.55
2022-11-19T03:18:59.738Z,24.63
2022-11-19T03:20:07.844Z,15.88
2022-11-19T03:21:17.163Z,15.05
2022-11-19T03:22:25.361Z,17.40
2022-11-19T03:23:32.317Z,18.27
2022-11-19T03:24:40.229Z,23.17
2022-11-19T03:25:47.441Z,16.65
2022-11-19T03:26:56.194Z,26.05
2022-11-19T03:28:02.281Z,23.55
2022-11-19T03:29:12.621Z,30.17
2022-11-19T03:30:17.202Z,18.02
2022-11-19T03:31:27.873Z,19.67
2022-11-19T03:32:35.031Z,19.33
2022-11-19T03:33:46.208Z,20.10
2022-11-19T03:34:53.474Z,26.48
2022-11-19T03:36:04.051Z,17.63
2022-11-19T03:37:09.709Z,28.10
2022-11-19T03:38:19.115Z,22.17
2022-11-19T03:39:22.838Z,25.48
2022-11-19T03:40:29.766Z,24.58
2022-11-19T03:41:34.559Z,20.98
2022-11-19T03:42:44.005Z,19.35
2022-11-19T03:43:52.185Z,28.40
2022-11-19T03:45:02.798Z,16.10
2022-11-19T03:46:09.273Z,11.13
2022-11-19T03:47:18.954Z,18.08
2022-11-19T03:48:23.519Z,15.15
2022-11-19T03:49:34.862Z,17.20
2022-11-19T03:50:49.233Z,11.45
2022-11-19T03:51:57.763Z,21.42
2022-11-19T03:53:04.480Z,19.92
2022-11-19T03:54:07.206Z,27.35
2022-11-19T03:55:12.471Z,26.50
2022-11-19T03:56:20.692Z,25.88
2022-11-19T03:57:27.891Z,22.17
2022-11-19T03:58:30.004Z,20.90
2022-11-19T03:59:37.498Z,19.73
2022-11-19T04:00:40.002Z,18.52
2022-11-19T04:01:46.918Z,21.58
2022-11-19T04:02:49.039Z,15.48
2022-11-19T04:04:05.931Z,12.82
2022-11-19T04:05:13.391Z,17.42
2022-11-19T04:06:15.542Z,18.52
2022-11-19T04:07:24.593Z,16.08
2022-11-19T04:08:26.711Z,31.85
2022-11-19T04:09:31.357Z,19.92
2022-11-19T04:10:33.438Z,14.93
2022-11-19T04:11:38.052Z,22.73
2022-11-19T04:12:40.127Z,20.27
2022-11-19T04:13:44.849Z,21.50
2022-11-19T04:14:47.649Z,23.15
2022-11-19T04:15:52.445Z,16.80
2022-11-19T04:16:54.547Z,15.23
2022-11-19T04:17:59.688Z,12.57
2022-11-19T04:19:01.724Z,16.48
2022-11-19T04:20:07.208Z,28.60
2022-11-19T04:21:11.982Z,21.48
2022-11-19T04:22:16.723Z,19.17
2022-11-19T04:23:18.774Z,18.25
2022-11-19T04:24:23.407Z,20.10
2022-11-19T04:25:25.611Z,36.92
2022-11-19T04:26:30.225Z,21.15
2022-11-19T04:27:32.464Z,25.90
2022-11-19T04:28:37.243Z,21.58
2022-11-19T04:29:39.278Z,24.52
2022-11-19T04:30:44.079Z,14.77
2022-11-19T04:31:46.257Z,20.60
2022-11-19T04:32:51.640Z,31.20
2022-11-19T04:34:02.637Z,23.90
2022-11-19T04:35:08.275Z,17.60
2022-11-19T04:36:13.058Z,31.25
2022-11-19T04:37:17.718Z,27.27
2022-11-19T04:38:19.820Z,29.63
2022-11-19T04:39:24.466Z,21.95
2022-11-19T04:40:26.529Z,25.17
2022-11-19T04:41:31.285Z,34.58
2022-11-19T04:42:33.321Z,19.98
2022-11-19T04:43:38.057Z,33.67
2022-11-19T04:44:40.161Z,21.42
2022-11-19T04:45:44.754Z,18.38
2022-11-19T04:46:46.883Z,28.08
2022-11-19T04:47:51.581Z,24.00
2022-11-19T04:48:53.638Z,24.08
2022-11-19T04:49:58.313Z,34.50
2022-11-19T04:51:00.324Z,21.08
2022-11-19T04:52:08.088Z,31.00
2022-11-19T04:53:10.202Z,23.80
2022-11-19T04:54:15.114Z,20.50
2022-11-19T04:55:17.365Z,24.38
2022-11-19T04:56:24.569Z,30.92
2022-11-19T04:57:26.642Z,26.65
2022-11-19T04:58:31.387Z,21.60
2022-11-19T04:59:33.493Z,19.95
2022-11-19T05:00:38.332Z,29.27
2022-11-19T05:01:40.466Z,20.63
2022-11-19T05:02:45.693Z,16.55
2022-11-19T05:03:48.189Z,33.20
2022-11-19T05:04:52.901Z,26.77
2022-11-19T05:05:55.414Z,19.38
2022-11-19T05:07:00.127Z,23.75
2022-11-19T05:08:05.607Z,25.20
2022-11-19T05:09:10.310Z,25.83
2022-11-19T05:10:12.394Z,41.45
2022-11-19T05:11:17.148Z,22.67
2022-11-19T05:12:19.462Z,17.77
2022-11-19T05:13:24.134Z,18.60
2022-11-19T05:14:30.373Z,16.60
2022-11-19T05:15:35.437Z,24.73
2022-11-19T05:16:37.502Z,23.27
2022-11-19T05:17:44.865Z,23.63
2022-11-19T05:18:49.222Z,23.50
2022-11-19T05:19:54.025Z,24.33
2022-11-19T05:20:56.060Z,28.65
2022-11-19T05:22:00.679Z,28.25
2022-11-19T05:23:05.932Z,27.67
2022-11-19T05:24:11.340Z,24.58
2022-11-19T05:25:13.396Z,21.13
2022-11-19T05:26:18.041Z,30.75
2022-11-19T05:27:20.094Z,33.67
2022-11-19T05:28:38.392Z,22.20
2022-11-19T05:29:41.414Z,21.40
2022-11-19T05:30:46.141Z,29.73
2022-11-19T05:31:48.329Z,41.65
2022-11-19T05:32:53.036Z,25.05
2022-11-19T05:33:59.273Z,37.08
2022-11-19T05:35:01.468Z,34.05
2022-11-19T05:36:06.653Z,33.50
2022-11-19T05:37:09.029Z,39.00
2022-11-19T05:38:16.548Z,27.70
2022-11-19T05:39:22.070Z,48.03
2022-11-19T05:40:27.329Z,84.43
2022-11-19T05:41:29.392Z,50.63
2022-11-19T05:42:34.318Z,26.77
2022-11-19T05:43:39.062Z,32.97
2022-11-19T05:44:41.411Z,33.53
2022-11-19T05:45:46.126Z,205.57
2022-11-19T05:46:48.333Z,295.70
2022-11-19T05:47:57.535Z,68.57
2022-11-19T05:48:59.883Z,101.22
2022-11-19T05:50:04.573Z,28.95
2022-11-19T05:51:06.741Z,50.22
2022-11-19T05:52:11.578Z,55.03
2022-11-19T05:53:18.870Z,38.85
2022-11-19T05:54:21.595Z,22.50
2022-11-19T05:55:26.483Z,27.58
2022-11-19T05:56:33.952Z,177.55
2022-11-19T05:57:37.177Z,30.90
2022-11-19T05:58:41.943Z,23.10
2022-11-19T05:59:44.406Z,35.08
2022-11-19T06:00:49.099Z,30.08
2022-11-19T06:01:51.147Z,155.77
2022-11-19T06:02:55.883Z,45.17
2022-11-19T06:03:58.178Z,33.20
2022-11-19T06:05:02.921Z,63.15
2022-11-19T06:06:05.599Z,34.25
2022-11-19T06:07:10.351Z,28.20
2022-11-19T06:08:12.462Z,22.73
2022-11-19T06:09:20.250Z,24.10
2022-11-19T06:10:22.447Z,24.00
2022-11-19T06:11:39.524Z,43.70
2022-11-19T06:12:46.441Z,21.63
2022-11-19T06:13:48.598Z,27.50
2022-11-19T06:14:53.414Z,33.60
2022-11-19T06:15:55.559Z,28.45
2022-11-19T06:17:02.636Z,33.22
2022-11-19T06:18:05.114Z,32.30
2022-11-19T06:19:09.879Z,36.28
2022-11-19T06:20:12.075Z,34.08
2022-11-19T06:21:17.331Z,33.38
2022-11-19T06:22:22.118Z,36.65
2022-11-19T06:23:24.367Z,41.78
2022-11-19T06:24:31.756Z,41.03
2022-11-19T06:25:33.969Z,44.53
2022-11-19T06:26:38.890Z,59.08
2022-11-19T06:27:41.121Z,48.67
2022-11-19T06:28:46.124Z,80.05
2022-11-19T06:29:51.097Z,53.35
2022-11-19T06:30:59.713Z,42.83
2022-11-19T06:32:01.873Z,48.50
2022-11-19T06:33:06.695Z,47.22
2022-11-19T06:34:09.096Z,58.47
2022-11-19T06:35:14.509Z,54.90
2022-11-19T06:36:16.870Z,37.45
2022-11-19T06:37:21.781Z,41.03
2022-11-19T06:38:24.146Z,37.50
2022-11-19T06:39:31.403Z,41.80
2022-11-19T06:40:36.147Z,50.17
2022-11-19T06:41:38.212Z,33.22
2022-11-19T06:42:46.090Z,73.38
2022-11-19T06:43:57.102Z,50.28
2022-11-19T06:45:06.447Z,53.00
2022-11-19T06:46:13.779Z,257.90
2022-11-19T06:47:29.120Z,230.13
2022-11-19T06:48:38.612Z,88.07
2022-11-19T06:49:51.257Z,44.03
2022-11-19T06:51:00.517Z,42.60
2022-11-19T06:52:24.567Z,69.05
2022-11-19T06:53:32.618Z,40.38
2022-11-19T06:54:43.693Z,34.83
2022-11-19T06:56:10.086Z,40.38
2022-11-19T06:57:18.079Z,306.52
2022-11-19T06:58:34.292Z,702.00
2022-11-19T06:59:41.488Z,363.95
2022-11-19T07:00:57.112Z,359.08
2022-11-19T07:02:12.385Z,316.45
2022-11-19T07:03:23.087Z,268.02
2022-11-19T07:04:38.412Z,166.97
2022-11-19T07:05:44.375Z,388.90
2022-11-19T07:06:49.470Z,614.15
2022-11-19T07:08:05.868Z,187.88
2022-11-19T07:09:20.701Z,59.10
2022-11-19T07:10:35.349Z,42.38
2022-11-19T07:11:41.437Z,38.83
2022-11-19T07:13:02.509Z,55.00
2022-11-19T07:14:06.587Z,62.20
2022-11-19T07:15:18.746Z,100.18
2022-11-19T07:16:27.661Z,135.75
2022-11-19T07:17:50.740Z,103.72
2022-11-19T07:19:03.395Z,229.68
2022-11-19T07:20:14.862Z,34.75
2022-11-19T07:21:17.493Z,42.28
2022-11-19T07:22:28.790Z,73.95
2022-11-19T07:23:33.961Z,64.30
2022-11-19T07:24:56.967Z,37.88
2022-11-19T07:26:05.251Z,48.80
2022-11-19T07:27:14.233Z,37.85
2022-11-19T07:28:16.383Z,43.53
2022-11-19T07:29:34.384Z,48.78
2022-11-19T07:30:50.662Z,49.40
2022-11-19T07:31:55.973Z,58.05
2022-11-19T07:33:00.044Z,58.63
2022-11-19T07:34:08.805Z,38.80
2022-11-19T07:35:17.622Z,63.30
2022-11-19T07:36:20.429Z,51.28
2022-11-19T07:37:25.487Z,54.03
2022-11-19T07:38:34.107Z,40.47
2022-11-19T07:39:43.990Z,45.20
2022-11-19T07:40:53.756Z,46.08
2022-11-19T07:42:13.638Z,33.83
2022-11-19T07:43:20.662Z,58.08
2022-11-19T07:44:22.790Z,53.95
2022-11-19T07:45:27.424Z,50.70
2022-11-19T07:46:29.444Z,41.38
2022-11-19T07:47:35.870Z,42.20
2022-11-19T07:48:37.911Z,42.65
2022-11-19T07:49:42.569Z,47.65
2022-11-19T07:50:56.470Z,34.42
2022-11-19T07:52:01.986Z,34.58
2022-11-19T07:53:04.505Z,42.28
2022-11-19T07:54:09.589Z,28.85
2022-11-19T07:55:14.379Z,27.63
2022-11-19T07:56:16.923Z,30.70
2022-11-19T07:57:29.924Z,31.17
2022-11-19T07:58:32.686Z,20.92
2022-11-19T07:59:37.332Z,22.48
2022-11-19T08:00:39.342Z,29.27
2022-11-19T08:01:44.081Z,30.60
2022-11-19T08:02:46.538Z,23.73
2022-11-19T08:03:56.337Z,19.75
2022-11-19T08:04:59.373Z,35.67
2022-11-19T08:06:05.973Z,28.38
2022-11-19T08:07:08.636Z,25.27
2022-11-19T08:08:13.309Z,30.42
2022-11-19T08:09:15.436Z,25.33
2022-11-19T08:10:20.216Z,22.88
2022-11-19T08:11:23.336Z,20.65
2022-11-19T08:12:31.807Z,27.95
2022-11-19T08:13:34.667Z,21.95
2022-11-19T08:14:39.310Z,20.13
2022-11-19T08:15:41.442Z,17.70
2022-11-19T08:16:58.463Z,24.33
2022-11-19T08:18:16.147Z,26.88
2022-11-19T08:19:19.208Z,30.67
2022-11-19T08:20:24.200Z,30.85
2022-11-19T08:21:26.329Z,22.65
2022-11-19T08:22:31.068Z,30.85
2022-11-19T08:23:34.414Z,20.13
2022-11-19T08:24:39.036Z,29.58
2022-11-19T08:25:43.387Z,41.50
2022-11-19T08:26:48.793Z,23.10
2022-11-19T08:27:54.061Z,24.77
2022-11-19T08:28:58.779Z,28.02
2022-11-19T08:30:03.605Z,27.85
2022-11-19T08:31:06.948Z,37.17
2022-11-19T08:32:11.581Z,36.15
2022-11-19T08:33:13.995Z,27.25
2022-11-19T08:34:19.685Z,24.15
2022-11-19T08:35:22.303Z,20.98
2022-11-19T08:36:27.088Z,14.30
2022-11-19T08:37:31.762Z,16.75
2022-11-19T08:38:38.817Z,27.25
2022-11-19T08:39:41.278Z,28.85
2022-11-19T08:40:45.945Z,24.92
2022-11-19T08:42:02.966Z,25.20
2022-11-19T08:43:07.844Z,33.60
2022-11-19T08:44:10.400Z,24.90
2022-11-19T08:45:19.566Z,22.80
2022-11-19T08:46:25.677Z,45.55
2022-11-19T08:47:27.898Z,24.83
2022-11-19T08:48:32.993Z,36.28
2022-11-19T08:49:37.751Z,27.10
2022-11-19T08:50:45.060Z,29.48
2022-11-19T08:51:47.193Z,38.47
2022-11-19T08:52:57.367Z,36.58
2022-11-19T08:53:59.664Z,31.45
2022-11-19T08:55:04.534Z,52.42
2022-11-19T08:56:12.832Z,28.42
2022-11-19T08:57:18.890Z,32.75
2022-11-19T08:58:26.817Z,32.10
2022-11-19T08:59:31.570Z,31.88
2022-11-19T09:00:36.486Z,27.42
2022-11-19T09:01:42.090Z,23.13
2022-11-19T09:02:44.226Z,18.75
2022-11-19T09:03:49.053Z,24.20
2022-11-19T09:04:51.442Z,22.98
2022-11-19T09:06:01.746Z,22.48
2022-11-19T09:07:03.904Z,16.80
2022-11-19T09:08:09.083Z,18.40
2022-11-19T09:09:11.639Z,21.10
2022-11-19T09:10:16.443Z,19.73
2022-11-19T09:11:26.659Z,14.77
2022-11-19T09:12:39.995Z,20.02
2022-11-19T09:13:47.793Z,23.60
2022-11-19T09:14:59.412Z,21.77
2022-11-19T09:17:35.345Z,45.03
2022-11-19T09:18:59.296Z,34.78
2022-11-19T09:20:20.805Z,28.45
2022-11-19T09:21:31.132Z,16.15
2022-11-19T09:22:42.869Z,40.42
2022-11-19T09:23:51.581Z,41.13
2022-11-19T09:25:09.783Z,21.98
2022-11-19T09:26:19.623Z,6.78
2022-11-19T09:27:53.374Z,26.77
2022-11-19T09:29:10.081Z,22.77
2022-11-19T09:30:22.293Z,15.75
2022-11-19T09:31:38.237Z,5.28
2022-11-19T09:34:24.799Z,17.77
2022-11-19T09:35:36.023Z,7.45
2022-11-19T09:36:48.935Z,7.88
2022-11-19T09:38:19.282Z,11.30
2022-11-19T09:39:49.771Z,16.33
2022-11-19T09:41:08.263Z,6.95
2022-11-19T09:42:32.462Z,16.95
2022-11-19T09:43:58.064Z,32.28
2022-11-19T09:45:42.318Z,26.83
2022-11-19T09:47:09.007Z,30.85
2022-11-19T09:48:47.931Z,6.28
2022-11-19T09:50:23.222Z,25.05
2022-11-19T09:51:37.496Z,15.75
2022-11-19T09:52:55.777Z,8.63
2022-11-19T09:54:30.942Z,13.93
2022-11-19T09:55:48.596Z,16.65
2022-11-19T09:57:08.703Z,14.55
2022-11-19T09:58:44.254Z,18.45
2022-11-19T09:59:57.407Z,13.25
2022-11-19T10:01:12.121Z,9.63
2022-11-19T10:02:25.609Z,26.80
2022-11-19T10:03:36.401Z,30.20
2022-11-19T10:04:49.284Z,12.57
2022-11-19T10:06:42.986Z,17.45
2022-11-19T10:08:10.247Z,33.20
2022-11-19T10:09:58.761Z,31.13
2022-11-19T10:11:21.438Z,22.75
2022-11-19T10:12:57.294Z,10.50
2022-11-19T10:14:16.743Z,17.48
2022-11-19T10:15:34.499Z,10.35
2022-11-19T10:17:03.520Z,10.70
2022-11-19T10:18:22.052Z,26.70
2022-11-19T10:19:52.238Z,13.65
2022-11-19T10:21:10.709Z,13.23
2022-11-19T10:22:24.290Z,20.45
2022-11-19T10:23:42.624Z,21.38
2022-11-19T10:25:07.381Z,23.40
2022-11-19T10:26:40.358Z,14.35
2022-11-19T10:28:14.255Z,126.63
2022-11-19T10:29:23.835Z,20.75
2022-11-19T10:30:36.391Z,23.13
2022-11-19T10:31:55.965Z,30.45
2022-11-19T10:33:20.665Z,21.63
2022-11-19T10:34:44.597Z,28.08
2022-11-19T10:36:19.070Z,19.17
2022-11-19T10:37:35.911Z,30.33
2022-11-19T10:39:05.080Z,13.75
2022-11-19T10:40:29.989Z,25.27
2022-11-19T10:41:49.438Z,27.90
2022-11-19T10:43:05.405Z,21.45
2022-11-19T10:44:37.622Z,25.20
2022-11-19T10:45:54.688Z,19.13
2022-11-19T10:47:11.935Z,36.13
2022-11-19T10:48:56.910Z,34.42
2022-11-19T10:50:11.308Z,40.50
2022-11-19T10:51:21.395Z,18.80
2022-11-19T10:52:29.299Z,16.27
2022-11-19T10:53:39.477Z,16.42
2022-11-19T10:54:42.053Z,19.45
2022-11-19T10:55:54.450Z,16.52
2022-11-19T10:56:58.277Z,21.10
2022-11-19T10:58:11.180Z,12.25
2022-11-19T10:59:17.471Z,30.30
2022-11-19T11:00:22.749Z,26.50
2022-11-19T11:01:29.982Z,18.92
2022-11-19T11:02:44.427Z,34.63
2022-11-19T11:03:57.643Z,28.15
2022-11-19T11:05:02.849Z,17.15
2022-11-19T11:06:10.298Z,18.52
2022-11-19T11:07:12.778Z,41.13
2022-11-19T11:08:17.904Z,11.25
2022-11-19T11:09:31.292Z,32.80
2022-11-19T11:10:42.825Z,9.90
2022-11-19T11:13:49.379Z,16.40
2022-11-19T11:15:01.721Z,13.02
2022-11-19T11:16:18.746Z,20.15
2022-11-19T11:17:29.719Z,14.90
2022-11-19T11:18:35.969Z,16.17
2022-11-19T11:19:45.606Z,23.45
2022-11-19T11:20:53.941Z,8.07
2022-11-19T11:22:03.487Z,22.75
2022-11-19T11:23:10.191Z,11.00
2022-11-19T11:24:19.953Z,19.27
2022-11-19T11:25:24.668Z,13.05
2022-11-19T11:26:33.874Z,10.55
2022-11-19T11:27:36.343Z,22.77
2022-11-19T11:28:58.982Z,31.30
2022-11-19T11:30:20.935Z,26.02
2022-11-19T11:32:35.347Z,13.57
2022-11-19T11:33:41.031Z,10.13
2022-11-19T11:34:48.358Z,18.80
2022-11-19T11:35:54.793Z,13.88
2022-11-19T11:36:57.787Z,19.60
2022-11-19T11:38:03.679Z,11.85
2022-11-19T11:39:06.815Z,28.50
2022-11-19T11:40:22.289Z,19.85
2022-11-19T11:42:59.665Z,13.30
2022-11-19T11:44:04.837Z,10.18
2022-11-19T11:45:23.309Z,11.70
2022-11-19T11:46:25.371Z,23.45
2022-11-19T11:47:33.909Z,21.13
2022-11-19T11:48:47.456Z,24.98
2022-11-19T11:50:03.450Z,14.50
2022-11-19T11:51:05.815Z,15.18
2022-11-19T11:52:21.048Z,17.55
2022-11-19T11:53:29.996Z,6.25
2022-11-19T11:54:34.699Z,12.95
2022-11-19T11:55:40.527Z,13.63
2022-11-19T11:56:43.004Z,13.25
2022-11-19T11:57:55.550Z,22.23
2022-11-19T11:59:17.855Z,10.38
2022-11-19T12:00:35.253Z,11.93
2022-11-19T12:01:40.942Z,26.95
2022-11-19T12:03:03.730Z,14.02
2022-11-19T12:04:09.433Z,18.15
2022-11-19T12:05:20.781Z,18.23
2022-11-19T12:06:26.748Z,30.77
2022-11-19T12:08:02.753Z,12.27
2022-11-19T12:09:10.112Z,17.90
2022-11-19T12:10:27.281Z,30.95
2022-11-19T12:11:51.183Z,15.27
2022-11-19T12:13:11.018Z,16.88
2022-11-19T12:14:14.223Z,26.13
2022-11-19T12:15:27.420Z,29.35
2022-11-19T12:16:44.917Z,20.67
2022-11-19T12:17:57.720Z,24.70
2022-11-19T12:19:18.384Z,13.00
2022-11-19T12:20:35.620Z,26.13
2022-11-19T12:21:53.065Z,19.02
2022-11-19T12:23:31.612Z,19.15
2022-11-19T12:24:53.377Z,30.77
2022-11-19T12:26:13.025Z,17.95
2022-11-19T12:27:22.986Z,23.35
2022-11-19T12:28:41.445Z,42.88
2022-11-19T12:29:57.099Z,30.80
2022-11-19T12:31:09.056Z,21.98
2022-11-19T12:32:32.622Z,39.33
2022-11-19T12:34:05.604Z,26.23
2022-11-19T12:35:22.391Z,30.05
2022-11-19T12:36:40.291Z,25.92
2022-11-19T12:38:00.527Z,152.45
2022-11-19T12:39:12.244Z,39.33
2022-11-19T12:40:39.851Z,33.05
2022-11-19T12:42:01.438Z,31.90
2022-11-19T12:43:18.482Z,14.45
2022-11-19T12:44:34.884Z,25.02
2022-11-19T12:45:51.119Z,51.70
2022-11-19T12:47:01.593Z,28.38
2022-11-19T12:48:32.907Z,14.35
2022-11-19T12:49:54.372Z,18.23
2022-11-19T12:51:03.179Z,21.02
2022-11-19T12:52:27.905Z,29.13
2022-11-19T12:53:45.202Z,16.65
2022-11-19T12:54:59.092Z,14.75
2022-11-19T12:56:13.301Z,22.02
2022-11-19T12:57:32.883Z,23.25
2022-11-19T12:58:45.119Z,19.45
2022-11-19T13:00:07.533Z,22.95
2022-11-19T13:01:14.629Z,15.63
2022-11-19T13:02:25.885Z,26.70
2022-11-19T13:03:46.423Z,32.92
2022-11-19T13:04:57.741Z,22.63
2022-11-19T13:06:05.439Z,24.80
2022-11-19T13:07:18.772Z,18.00
2022-11-19T13:08:30.979Z,19.33
2022-11-19T13:09:40.385Z,24.38
2022-11-19T13:10:53.726Z,18.30
2022-11-19T13:12:00.769Z,32.75
2022-11-19T13:13:06.523Z,35.45
2022-11-19T13:14:17.666Z,40.78
2022-11-19T13:15:23.648Z,16.20
2022-11-19T13:16:31.535Z,23.35
2022-11-19T13:17:38.524Z,25.42
2022-11-19T13:18:47.063Z,18.10
2022-11-19T13:19:56.706Z,36.40
2022-11-19T13:21:05.713Z,20.67
2022-11-19T13:22:18.988Z,22.17
2022-11-19T13:23:26.617Z,23.77
2022-11-19T13:24:35.544Z,21.90
2022-11-19T13:25:45.158Z,23.73
2022-11-19T13:26:47.892Z,35.35
2022-11-19T13:27:54.662Z,16.63
2022-11-19T13:29:04.229Z,13.55
2022-11-19T13:30:19.158Z,23.40
2022-11-19T13:31:31.276Z,21.05
2022-11-19T13:32:43.455Z,12.77
2022-11-19T13:33:54.112Z,12.23
2022-11-19T13:35:08.749Z,22.03
2022-11-19T13:36:21.351Z,38.22
2022-11-19T13:37:41.098Z,27.63
2022-11-19T13:38:51.507Z,16.45
2022-11-19T13:40:02.763Z,16.83
2022-11-19T13:41:14.290Z,13.48
2022-11-19T13:42:33.963Z,14.57
2022-11-19T13:43:51.170Z,22.33
2022-11-19T13:44:53.450Z,18.70
2022-11-19T13:46:08.587Z,16.98
2022-11-19T13:47:18.476Z,23.25
2022-11-19T13:48:29.310Z,17.55
2022-11-19T13:49:40.110Z,21.23
2022-11-19T13:50:45.957Z,19.27
2022-11-19T13:51:55.116Z,31.40
2022-11-19T13:53:07.969Z,26.45
2022-11-19T13:54:22.121Z,22.58
2022-11-19T13:55:36.429Z,16.08
2022-11-19T13:56:43.243Z,20.77
2022-11-19T13:57:48.133Z,28.73
2022-11-19T13:58:53.841Z,18.58
2022-11-19T14:00:04.832Z,22.50
2022-11-19T14:01:26.570Z,19.83
2022-11-19T14:02:52.269Z,59.78
2022-11-19T14:04:12.910Z,27.83
2022-11-19T14:05:47.633Z,22.95
2022-11-19T14:07:03.535Z,25.15
2022-11-19T14:08:30.941Z,28.73
2022-11-19T14:09:43.357Z,27.33
2022-11-19T14:10:59.955Z,23.83
2022-11-19T14:12:32.276Z,16.05
2022-11-19T14:13:49.250Z,16.48
2022-11-19T14:15:32.322Z,26.88
2022-11-19T14:16:58.344Z,17.27
2022-11-19T14:18:24.303Z,16.90
2022-11-19T14:19:41.461Z,24.85
2022-11-19T14:21:00.551Z,17.80
2022-11-19T14:22:55.411Z,25.10
2022-11-19T14:24:12.599Z,33.28
2022-11-19T14:25:56.370Z,22.88
2022-11-19T14:27:21.371Z,26.40
2022-11-19T14:28:47.942Z,17.35
2022-11-19T14:29:59.362Z,42.67
2022-11-19T14:31:06.512Z,15.75
2022-11-19T14:32:21.544Z,26.42
2022-11-19T14:33:45.484Z,26.35
2022-11-19T14:35:24.894Z,32.00
2022-11-19T14:36:43.829Z,25.38
2022-11-19T14:37:51.426Z,15.05
2022-11-19T14:38:58.722Z,22.33
2022-11-19T14:40:08.380Z,16.13
2022-11-19T14:41:27.291Z,28.42
2022-11-19T14:42:32.119Z,29.42
2022-11-19T14:44:04.779Z,22.70
2022-11-19T14:45:23.129Z,24.15
2022-11-19T14:46:27.593Z,23.48
2022-11-19T14:47:35.650Z,17.38
2022-11-19T14:48:51.693Z,20.23
2022-11-19T14:49:57.573Z,21.40
2022-11-19T14:51:08.650Z,23.52
2022-11-19T14:52:23.249Z,25.02
2022-11-19T14:53:28.209Z,24.83
2022-11-19T14:54:42.458Z,20.67
2022-11-19T14:55:53.968Z,23.83
2022-11-19T14:57:09.111Z,17.13
2022-11-19T14:58:24.280Z,28.70
2022-11-19T14:59:31.620Z,37.45
2022-11-19T15:00:39.734Z,24.10
2022-11-19T15:01:52.888Z,33.08
2022-11-19T15:02:58.969Z,35.58
2022-11-19T15:04:07.961Z,19.92
2022-11-19T15:05:21.669Z,28.73
2022-11-19T15:06:24.207Z,28.42
2022-11-19T15:07:38.420Z,37.17
2022-11-19T15:08:57.504Z,23.92